Time;durP1;ratioP1;P1;durP2;ratioP2;P2;SDS_P1;SDS_P2;PMS_P1;PMS_P2;Temp;Humidity;BMP_temperature;BMP_pressure;BME280_temperature;BME280_humidity;BME280_pressure;Samples;Min_cycle;Max_cycle;Signal;HPM_P1;HPM_P2
2021/03/25 00:01:21;;;;;;;71.10;27.08;;;10.80;89.90;;;;;;5075267;28;20040;-87
2021/03/25 00:03:50;;;;;;;67.75;29.83;;;10.70;89.70;;;;;;5075943;28;20052;-88
2021/03/25 00:06:15;;;;;;;;;;;10.80;89.90;;;;;;5080260;28;20082;-89
2021/03/25 00:08:41;;;;;;;73.25;28.77;;;10.80;89.80;;;;;;5078571;28;19908;-90
2021/03/25 00:11:07;;;;;;;68.50;29.38;;;10.80;89.90;;;;;;5080382;28;20020;-86
2021/03/25 00:13:33;;;;;;;65.28;28.50;;;10.80;89.80;;;;;;5073666;28;20047;-84
2021/03/25 00:16:03;;;;;;;72.65;29.85;;;10.90;90.00;;;;;;5072887;28;20041;-85
2021/03/25 00:18:29;;;;;;;71.15;28.98;;;10.80;90.00;;;;;;5071998;28;20040;-86
2021/03/25 00:20:55;;;;;;;72.93;29.52;;;10.80;90.10;;;;;;5073171;28;21566;-85
2021/03/25 00:23:22;;;;;;;76.13;31.48;;;10.80;90.10;;;;;;5074126;28;20033;-85
2021/03/25 00:25:47;;;;;;;74.22;30.42;;;10.80;90.20;;;;;;5071053;28;20044;-86
2021/03/25 00:28:15;;;;;;;75.15;31.77;;;10.80;90.30;;;;;;5071345;28;20051;-86
2021/03/25 00:30:41;;;;;;;69.75;30.27;;;10.80;90.20;;;;;;5074584;28;20463;-88
2021/03/25 00:33:08;;;;;;;76.45;30.05;;;10.80;90.00;;;;;;5074026;28;20418;-87
2021/03/25 00:35:35;;;;;;;74.20;31.08;;;10.70;90.40;;;;;;5074512;28;20035;-86
2021/03/25 00:38:00;;;;;;;68.47;28.52;;;10.80;90.20;;;;;;5072631;28;20131;-87
2021/03/25 00:40:27;;;;;;;76.20;29.55;;;10.60;90.50;;;;;;5071792;28;20133;-88
2021/03/25 00:42:53;;;;;;;65.60;28.40;;;10.40;90.60;;;;;;5072461;28;20041;-87
2021/03/25 00:45:37;;;;;;;67.60;27.42;;;10.30;90.70;;;;;;5072819;28;20090;-86
2021/03/25 00:48:04;;;;;;;73.47;29.00;;;10.20;90.90;;;;;;5071929;28;20056;-87
2021/03/25 00:50:33;;;;;;;72.15;30.05;;;10.10;91.00;;;;;;5075884;28;20349;-86
2021/03/25 00:53:00;;;;;;;69.57;29.17;;;10.00;91.10;;;;;;5074409;28;20342;-87
2021/03/25 00:55:27;;;;;;;68.78;29.70;;;9.90;91.80;;;;;;5073419;28;20025;-88
2021/03/25 00:57:55;;;;;;;78.57;29.63;;;9.90;91.90;;;;;;5072544;28;20045;-86
2021/03/25 01:00:36;;;;;;;77.00;29.75;;;9.90;92.00;;;;;;5087898;28;20037;-84
2021/03/25 01:03:02;;;;;;;69.88;28.90;;;9.80;92.10;;;;;;5073228;28;20033;-89
2021/03/25 01:05:30;;;;;;;75.07;30.40;;;9.80;92.30;;;;;;5074676;28;20024;-87
2021/03/25 01:07:57;;;;;;;74.30;29.65;;;9.70;92.30;;;;;;5073291;28;20064;-87
2021/03/25 01:10:35;;;;;;;75.05;29.55;;;9.70;92.40;;;;;;5075354;28;20040;-87
2021/03/25 01:13:02;;;;;;;78.72;32.08;;;9.60;92.40;;;;;;5075757;28;20075;-86
2021/03/25 01:15:28;;;;;;;73.90;30.40;;;9.60;92.60;;;;;;5077265;28;20058;-87
2021/03/25 01:17:58;;;;;;;71.35;30.50;;;9.60;92.70;;;;;;5072796;28;20086;-84
2021/03/25 01:20:31;;;;;;;74.57;31.20;;;9.60;92.80;;;;;;5074668;28;20021;-84
2021/03/25 01:22:57;;;;;;;82.45;30.75;;;9.50;92.80;;;;;;5071838;28;20043;-85
2021/03/25 01:25:27;;;;;;;76.13;31.38;;;9.50;92.90;;;;;;5072173;28;20415;-86
2021/03/25 01:27:58;;;;;;;76.43;31.17;;;9.50;93.10;;;;;;5071933;28;20140;-85
2021/03/25 01:30:25;;;;;;;76.10;31.30;;;9.40;93.10;;;;;;5072176;28;20036;-85
2021/03/25 01:32:50;;;;;;;70.53;30.42;;;9.40;93.20;;;;;;5071512;28;20477;-86
2021/03/25 01:35:17;;;;;;;75.13;32.50;;;9.40;93.30;;;;;;5072644;28;20060;-85
2021/03/25 01:37:45;;;;;;;82.05;32.25;;;9.50;93.30;;;;;;5088837;28;20068;-87
2021/03/25 01:40:13;;;;;;;79.40;29.67;;;9.60;93.40;;;;;;5073396;28;20048;-86
2021/03/25 01:42:38;;;;;;;67.28;29.30;;;9.50;93.20;;;;;;5073863;28;20082;-87
2021/03/25 01:45:29;;;;;;;75.43;30.60;;;9.40;93.10;;;;;;5073465;28;20442;-86
2021/03/25 01:47:56;;;;;;;71.35;29.52;;;9.40;93.30;;;;;;5073537;28;20033;-85
2021/03/25 01:50:21;;;;;;;72.78;30.00;;;9.30;93.50;;;;;;5074226;28;20021;-86
2021/03/25 01:53:21;;;;;;;76.15;31.42;;;9.20;93.60;;;;;;5073617;28;20044;-85
2021/03/25 01:55:59;;;;;;;74.57;31.30;;;9.20;93.60;;;;;;5071830;28;20347;-89
2021/03/25 01:58:53;;;;;;;77.05;31.75;;;9.20;93.70;;;;;;5077791;28;20075;-88
2021/03/25 02:01:58;;;;;;;83.90;32.80;;;9.30;93.70;;;;;;5079593;28;20037;-87
2021/03/25 02:04:38;;;;;;;74.38;31.08;;;9.30;93.80;;;;;;5080851;28;20028;-88
2021/03/25 02:07:14;;;;;;;68.47;30.60;;;9.30;93.80;;;;;;5081313;28;20060;-89
2021/03/25 02:10:00;;;;;;;80.95;32.60;;;9.20;93.80;;;;;;5081183;28;20040;-89
2021/03/25 02:13:00;;;;;;;73.35;31.67;;;9.10;93.80;;;;;;5080795;28;20028;-88
2021/03/25 02:15:38;;;;;;;75.55;31.73;;;9.10;94.00;;;;;;5089003;28;20036;-88
2021/03/25 02:18:22;;;;;;;79.85;32.20;;;9.00;94.10;;;;;;5080016;28;20033;-89
2021/03/25 02:21:04;;;;;;;82.63;32.78;;;9.00;94.20;;;;;;5079466;28;20094;-89
2021/03/25 02:23:47;;;;;;;81.93;33.72;;;8.80;94.30;;;;;;5079882;28;20012;-89
2021/03/25 02:26:36;;;;;;;83.18;33.72;;;8.80;94.60;;;;;;5095729;28;20041;-90
2021/03/25 02:29:20;;;;;;;72.75;30.58;;;8.70;94.70;;;;;;5080129;28;20036;-87
2021/03/25 02:31:51;;;;;;;86.93;32.38;;;8.70;94.70;;;;;;5081697;28;20204;-88
2021/03/25 02:34:28;;;;;;;81.38;32.92;;;8.60;94.80;;;;;;5080693;28;20063;-89
2021/03/25 02:36:59;;;;;;;84.95;32.55;;;8.60;94.90;;;;;;5081232;28;20055;-88
2021/03/25 02:39:31;;;;;;;80.38;33.53;;;8.60;95.00;;;;;;5078104;28;20082;-93
2021/03/25 02:41:59;;;;;;;84.15;34.83;;;8.50;95.20;;;;;;5081050;28;20016;-88
2021/03/25 02:44:33;;;;;;;88.50;36.42;;;8.50;95.20;;;;;;5079688;28;20146;-88
2021/03/25 02:47:10;;;;;;;81.72;33.85;;;8.40;95.30;;;;;;5076976;28;20032;-88
2021/03/25 02:49:57;;;;;;;84.07;35.63;;;8.40;95.30;;;;;;5079151;28;20055;-90
2021/03/25 02:52:30;;;;;;;80.05;35.10;;;8.40;95.40;;;;;;5080540;28;20029;-89
2021/03/25 02:55:02;;;;;;;87.65;35.70;;;8.40;95.50;;;;;;5080277;28;20021;-89
2021/03/25 02:57:33;;;;;;;85.20;34.75;;;8.30;95.50;;;;;;5078448;28;20028;-88
2021/03/25 03:00:07;;;;;;;87.82;35.35;;;8.30;95.60;;;;;;5076182;28;20037;-88
2021/03/25 03:02:48;;;;;;;87.78;34.28;;;8.30;95.70;;;;;;5079437;28;20021;-90
2021/03/25 03:05:25;;;;;;;89.03;34.60;;;8.10;95.80;;;;;;5079796;28;20043;-90
2021/03/25 03:08:06;;;;;;;88.30;34.28;;;8.10;95.70;;;;;;5077598;28;20450;-89
2021/03/25 03:10:52;;;;;;;94.47;38.80;;;8.20;95.70;;;;;;5077465;28;20037;-88
2021/03/25 03:13:21;;;;;;;90.80;36.67;;;8.20;95.80;;;;;;5077210;28;20036;-87
2021/03/25 03:15:52;;;;;;;92.65;36.65;;;8.20;95.90;;;;;;5076311;28;20024;-87
2021/03/25 03:18:26;;;;;;;98.10;37.78;;;8.10;95.90;;;;;;5075697;28;20035;-85
2021/03/25 03:20:59;;;;;;;92.47;35.60;;;8.10;96.00;;;;;;5074763;28;20100;-86
2021/03/25 03:23:27;;;;;;;91.72;33.85;;;8.10;96.00;;;;;;5076018;28;20026;-87
2021/03/25 03:25:56;;;;;;;89.78;35.72;;;8.00;96.10;;;;;;5073712;28;20045;-86
2021/03/25 03:28:30;;;;;;;91.97;36.55;;;8.10;96.10;;;;;;5073804;28;20029;-84
2021/03/25 03:31:04;;;;;;;87.70;35.55;;;8.20;96.20;;;;;;5073906;28;20029;-88
2021/03/25 03:33:39;;;;;;;90.50;35.10;;;8.30;96.10;;;;;;5074684;28;20104;-87
2021/03/25 03:36:08;;;;;;;83.60;34.55;;;8.40;96.10;;;;;;5075249;28;20043;-87
2021/03/25 03:38:37;;;;;;;87.80;33.30;;;8.40;95.90;;;;;;5076752;28;20488;-86
2021/03/25 03:41:05;;;;;;;81.55;33.33;;;8.30;95.80;;;;;;5075302;28;20047;-87
2021/03/25 03:43:33;;;;;;;;;;;8.40;95.90;;;;;;5074485;28;20048;-87
2021/03/25 03:46:05;;;;;;;83.35;33.90;;;8.30;95.90;;;;;;5076267;28;19920;-89
2021/03/25 03:48:46;;;;;;;87.15;34.05;;;8.10;95.90;;;;;;5076723;28;20039;-88
2021/03/25 03:51:21;;;;;;;90.45;33.83;;;8.00;96.10;;;;;;5074109;28;20024;-83
2021/03/25 03:53:47;;;;;;;75.07;32.72;;;8.00;96.00;;;;;;5072470;28;20062;-86
2021/03/25 03:56:47;;;;;;;85.15;33.78;;;7.90;96.00;;;;;;5077723;28;20548;-89
2021/03/25 03:59:28;;;;;;;73.88;30.90;;;7.90;96.10;;;;;;5059633;28;20032;-88
2021/03/25 04:02:04;;;;;;;87.03;33.53;;;7.80;96.20;;;;;;5074607;28;20425;-85
2021/03/25 04:04:37;;;;;;;78.72;32.17;;;7.70;96.20;;;;;;5071885;28;20101;-84
2021/03/25 04:07:07;;;;;;;85.97;34.70;;;7.80;96.50;;;;;;5071899;28;20046;-85
2021/03/25 04:09:48;;;;;;;77.10;33.78;;;7.80;96.50;;;;;;5071854;28;20032;-85
2021/03/25 04:12:24;;;;;;;83.13;34.13;;;7.70;96.40;;;;;;5070666;28;20399;-83
2021/03/25 04:14:57;;;;;;;82.63;34.88;;;7.70;96.50;;;;;;5074542;28;20032;-88
2021/03/25 04:17:32;;;;;;;96.50;37.85;;;7.70;96.70;;;;;;5077942;28;20443;-89
2021/03/25 04:20:06;;;;;;;84.00;34.90;;;7.70;96.70;;;;;;5075395;28;20040;-88
2021/03/25 04:22:40;;;;;;;89.88;35.55;;;7.80;96.80;;;;;;5075188;28;20029;-88
2021/03/25 04:25:10;;;;;;;80.78;34.53;;;7.80;96.70;;;;;;5071460;28;20052;-86
2021/03/25 04:28:07;;;;;;;74.85;33.28;;;7.80;96.60;;;;;;5071524;28;20025;-85
2021/03/25 04:30:38;;;;;;;82.72;33.35;;;7.70;96.60;;;;;;5071066;28;20055;-88
2021/03/25 04:33:04;;;;;;;84.13;34.05;;;7.90;96.60;;;;;;5071506;28;20116;-88
2021/03/25 04:35:31;;;;;;;81.40;33.72;;;8.00;96.40;;;;;;5073384;28;20032;-87
2021/03/25 04:37:58;;;;;;;85.57;33.10;;;8.00;96.30;;;;;;5070982;28;20124;-86
2021/03/25 04:40:31;;;;;;;90.47;35.75;;;7.90;96.40;;;;;;5069468;28;20100;-86
2021/03/25 04:42:57;;;;;;;81.85;33.58;;;7.80;96.50;;;;;;5070783;28;20036;-88
2021/03/25 04:45:44;;;;;;;82.63;33.83;;;7.80;96.60;;;;;;5073292;28;20033;-87
2021/03/25 04:48:14;;;;;;;87.45;34.60;;;7.80;96.70;;;;;;5072760;28;20132;-88
2021/03/25 04:50:44;;;;;;;82.90;34.47;;;7.80;96.70;;;;;;5073793;28;20342;-85
2021/03/25 04:53:28;;;;;;;84.68;34.28;;;7.80;96.70;;;;;;5072684;28;20027;-87
2021/03/25 04:55:56;;;;;;;89.90;35.25;;;7.80;96.80;;;;;;5073754;28;20029;-87
2021/03/25 04:58:35;;;;;;;78.38;32.58;;;7.70;96.80;;;;;;5073357;28;20135;-87
2021/03/25 05:01:17;;;;;;;91.20;35.33;;;7.70;96.80;;;;;;5073712;28;20096;-89
2021/03/25 05:03:44;;;;;;;80.78;31.88;;;7.70;96.80;;;;;;5074057;28;20452;-87
2021/03/25 05:07:01;;;;;;;81.57;33.30;;;7.70;96.80;;;;;;5076369;28;20055;-87
2021/03/25 05:09:29;;;;;;;94.45;36.60;;;7.70;96.90;;;;;;5062409;28;20132;-88
2021/03/25 05:11:56;;;;;;;84.47;34.65;;;7.70;97.00;;;;;;5073504;28;20477;-86
2021/03/25 05:14:27;;;;;;;87.72;34.08;;;7.80;97.00;;;;;;5075290;28;20024;-88
2021/03/25 05:17:05;;;;;;;87.05;33.47;;;7.70;96.90;;;;;;5073011;28;20355;-86
2021/03/25 05:19:57;;;;;;;86.57;34.03;;;7.90;96.70;;;;;;5072699;28;20576;-86
2021/03/25 05:22:57;;;;;;;85.63;34.95;;;8.10;96.30;;;;;;5072631;28;20025;-87
2021/03/25 05:25:23;;;;;;;83.68;35.55;;;8.10;96.40;;;;;;5087666;28;20035;-88
2021/03/25 05:27:58;;;;;;;80.22;33.78;;;8.20;96.30;;;;;;5071877;28;20060;-88
2021/03/25 05:30:27;;;;;;;85.65;33.80;;;8.20;96.40;;;;;;5072684;28;20078;-86
2021/03/25 05:32:59;;;;;;;89.07;35.55;;;8.20;96.40;;;;;;5075807;28;20040;-86
2021/03/25 05:35:29;;;;;;;88.80;34.22;;;8.20;96.40;;;;;;5077032;28;20032;-86
2021/03/25 05:37:55;;;;;;;82.47;34.42;;;8.10;96.50;;;;;;5075981;28;20408;-86
2021/03/25 05:40:28;;;;;;;86.30;32.42;;;8.10;96.50;;;;;;5075381;28;20047;-88
2021/03/25 05:43:16;;;;;;;78.38;33.90;;;8.20;96.50;;;;;;5076494;28;20044;-87
2021/03/25 05:46:00;;;;;;;86.50;34.70;;;8.20;96.50;;;;;;5076424;28;20043;-88
2021/03/25 05:48:31;;;;;;;85.95;34.08;;;8.20;96.60;;;;;;5076564;28;20071;-88
2021/03/25 05:51:08;;;;;;;86.43;34.75;;;8.30;96.60;;;;;;5078798;28;20037;-89
2021/03/25 05:53:47;;;;;;;77.50;34.22;;;8.40;96.60;;;;;;5079448;28;20021;-88
2021/03/25 05:56:39;;;;;;;81.90;32.53;;;8.40;96.50;;;;;;5078685;28;20043;-88
2021/03/25 05:59:15;;;;;;;89.32;34.25;;;8.50;96.60;;;;;;5082131;28;20045;-90
2021/03/25 06:02:11;;;;;;;84.88;33.72;;;8.40;96.60;;;;;;5080577;28;20042;-87
2021/03/25 06:04:37;;;;;;;80.38;34.58;;;8.40;96.70;;;;;;5080745;28;20044;-88
2021/03/25 06:07:35;;;;;;;87.80;34.85;;;8.30;96.80;;;;;;5082728;28;20041;-87
2021/03/25 06:10:22;;;;;;;91.40;35.22;;;8.50;96.90;;;;;;5078081;28;20182;-87
2021/03/25 06:13:18;;;;;;;83.28;34.75;;;8.60;96.60;;;;;;5079056;28;20024;-89
2021/03/25 06:16:02;;;;;;;84.10;33.72;;;8.70;96.50;;;;;;5075828;28;20036;-87
2021/03/25 06:18:44;;;;;;;85.93;34.20;;;8.60;96.50;;;;;;5077581;28;20438;-90
2021/03/25 06:21:34;;;;;;;89.25;35.08;;;8.70;96.60;;;;;;5073499;28;20033;-84
2021/03/25 06:24:23;;;;;;;88.35;35.10;;;8.70;96.80;;;;;;5072682;28;20102;-81
2021/03/25 06:27:23;;;;;;;80.68;33.67;;;8.60;96.80;;;;;;5072398;28;20038;-84
2021/03/25 06:29:53;;;;;;;93.75;35.17;;;8.70;96.90;;;;;;5071014;28;20167;-84
2021/03/25 06:32:39;;;;;;;94.25;35.17;;;8.80;96.70;;;;;;5075269;28;20093;-80
2021/03/25 06:35:20;;;;;;;88.47;35.17;;;8.90;96.60;;;;;;5072878;28;20093;-82
2021/03/25 06:38:04;;;;;;;84.95;35.45;;;9.10;96.60;;;;;;5075218;28;20124;-85
2021/03/25 06:41:08;;;;;;;85.93;35.63;;;9.10;96.50;;;;;;5073101;28;20037;-84
2021/03/25 06:43:53;;;;;;;85.45;34.60;;;9.20;96.50;;;;;;5072322;28;20098;-83
2021/03/25 06:46:28;;;;;;;88.15;36.03;;;9.20;96.50;;;;;;5072131;28;20063;-85
2021/03/25 06:48:59;;;;;;;83.40;33.83;;;9.20;96.40;;;;;;5076046;28;20505;-85
2021/03/25 06:51:26;;;;;;;89.18;36.47;;;9.20;96.50;;;;;;5074343;28;20051;-84
2021/03/25 06:54:23;;;;;;;83.65;34.95;;;9.30;96.50;;;;;;5074634;28;20382;-83
2021/03/25 06:56:51;;;;;;;95.70;34.63;;;9.30;96.50;;;;;;5067943;28;20477;-83
2021/03/25 06:59:29;;;;;;;86.60;35.85;;;9.40;96.20;;;;;;5075702;28;20105;-85
2021/03/25 07:02:14;;;;;;;81.97;34.85;;;9.50;96.40;;;;;;5075233;28;20048;-84
2021/03/25 07:04:44;;;;;;;88.18;35.97;;;9.40;96.30;;;;;;5074600;28;20430;-77
2021/03/25 07:07:30;;;;;;;97.85;36.78;;;9.50;96.30;;;;;;5084763;28;20043;-83
2021/03/25 07:09:57;;;;;;;92.45;37.10;;;9.50;96.20;;;;;;5094711;28;20469;-84
2021/03/25 07:12:28;;;;;;;90.43;34.67;;;9.60;96.10;;;;;;5094398;28;20048;-83
2021/03/25 07:14:54;;;;;;;83.18;35.80;;;9.60;96.10;;;;;;5094424;28;20365;-82
2021/03/25 07:17:29;;;;;;;82.70;35.78;;;9.70;95.90;;;;;;5094883;28;20028;-84
2021/03/25 07:19:55;;;;;;;86.15;36.22;;;9.70;96.10;;;;;;5092587;28;20028;-83
2021/03/25 07:22:31;;;;;;;91.32;36.97;;;9.90;96.00;;;;;;5091922;28;20054;-83
2021/03/25 07:25:23;;;;;;;81.35;35.30;;;9.80;95.70;;;;;;5091847;28;20044;-83
2021/03/25 07:27:49;;;;;;;84.70;34.47;;;9.90;95.70;;;;;;5092848;28;20621;-83
2021/03/25 07:30:18;;;;;;;83.05;36.13;;;10.00;95.10;;;;;;5092757;28;20043;-82
2021/03/25 07:33:06;;;;;;;85.45;36.13;;;10.10;94.80;;;;;;5093331;28;20058;-84
2021/03/25 07:35:48;;;;;;;85.78;33.60;;;10.10;94.80;;;;;;5093017;28;20111;-84
2021/03/25 07:38:28;;;;;;;89.10;36.67;;;10.10;94.80;;;;;;5093020;28;20044;-83
2021/03/25 07:41:15;;;;;;;85.55;35.17;;;10.20;94.80;;;;;;5091647;28;20039;-82
2021/03/25 07:44:28;;;;;;;87.22;34.95;;;10.30;94.70;;;;;;5092550;28;20048;-83
2021/03/25 07:47:03;;;;;;;82.95;35.40;;;10.30;94.70;;;;;;5092166;28;20410;-82
2021/03/25 07:49:32;;;;;;;81.22;36.13;;;10.40;94.70;;;;;;5092856;28;20056;-84
2021/03/25 07:52:04;;;;;;;87.93;37.20;;;10.40;94.60;;;;;;5091209;28;20036;-83
2021/03/25 07:54:41;;;;;;;88.47;36.08;;;10.50;94.50;;;;;;5090534;28;20032;-83
2021/03/25 07:57:13;;;;;;;86.38;37.97;;;10.60;94.30;;;;;;5090530;28;20051;-84
2021/03/25 07:59:42;;;;;;;91.30;36.78;;;10.70;94.30;;;;;;5089785;28;20081;-82
2021/03/25 08:02:36;;;;;;;90.50;39.78;;;10.70;94.20;;;;;;5091825;28;20016;-84
2021/03/25 08:05:29;;;;;;;83.57;35.35;;;10.80;94.20;;;;;;5089582;28;20036;-85
2021/03/25 08:07:59;;;;;;;89.70;33.72;;;10.90;94.20;;;;;;5089009;28;20028;-83
2021/03/25 08:10:45;;;;;;;86.95;37.22;;;10.90;94.10;;;;;;5089924;28;20036;-82
2021/03/25 08:13:25;;;;;;;82.28;36.42;;;10.90;93.90;;;;;;5090809;28;20402;-83
2021/03/25 08:16:14;;;;;;;84.97;35.50;;;11.00;93.90;;;;;;5091344;28;20032;-82
2021/03/25 08:19:11;;;;;;;79.80;33.72;;;11.00;93.90;;;;;;5090443;28;20462;-81
2021/03/25 08:22:10;;;;;;;84.22;37.25;;;11.00;94.00;;;;;;5091092;28;20047;-85
2021/03/25 08:24:49;;;;;;;96.78;40.08;;;11.10;94.00;;;;;;5090136;28;20039;-83
2021/03/25 08:27:29;;;;;;;86.70;34.40;;;11.10;94.00;;;;;;5090170;28;20054;-83
2021/03/25 08:30:30;;;;;;;92.40;38.10;;;11.20;93.80;;;;;;5089358;28;20032;-84
2021/03/25 08:33:08;;;;;;;84.35;36.42;;;11.30;93.70;;;;;;5090008;28;20418;-82
2021/03/25 08:35:39;;;;;;;89.80;36.95;;;11.40;93.60;;;;;;5092156;28;20035;-83
2021/03/25 08:38:25;;;;;;;91.32;37.28;;;11.40;93.70;;;;;;5090294;28;20446;-84
2021/03/25 08:41:19;;;;;;;90.22;36.13;;;11.30;93.70;;;;;;5091311;28;20107;-84
2021/03/25 08:44:08;;;;;;;85.35;35.72;;;11.30;93.60;;;;;;5090344;28;20047;-83
2021/03/25 08:46:46;;;;;;;87.30;36.83;;;11.30;93.60;;;;;;5091671;28;20032;-83
2021/03/25 08:49:30;;;;;;;;;;;11.30;93.60;;;;;;5090969;28;20052;-84
2021/03/25 08:51:58;;;;;;;84.50;35.88;;;11.30;93.40;;;;;;5088438;28;19974;-84
2021/03/25 08:54:36;;;;;;;;;;;11.40;93.30;;;;;;5090298;28;20048;-84
2021/03/25 08:57:24;;;;;;;80.40;34.25;;;11.40;93.20;;;;;;5090086;28;20343;-83
2021/03/25 09:00:18;;;;;;;82.65;34.97;;;11.50;93.00;;;;;;5089713;28;20030;-83
2021/03/25 09:02:52;;;;;;;83.80;35.42;;;11.60;93.10;;;;;;5089486;28;20364;-84
2021/03/25 09:05:38;;;;;;;96.18;34.53;;;11.70;92.90;;;;;;5093056;28;20103;-85
2021/03/25 09:08:11;;;;;;;72.82;33.30;;;11.70;92.70;;;;;;5095499;28;20104;-85
2021/03/25 09:10:47;;;;;;;81.13;33.95;;;11.80;92.50;;;;;;5092279;28;20100;-84
2021/03/25 09:13:20;;;;;;;76.65;32.78;;;11.80;92.30;;;;;;5093554;28;20036;-87
2021/03/25 09:15:47;;;;;;;79.03;33.38;;;11.90;92.30;;;;;;5094176;28;20036;-82
2021/03/25 09:18:29;;;;;;;73.32;33.00;;;12.10;92.30;;;;;;5093978;28;20028;-84
2021/03/25 09:21:14;;;;;;;72.15;32.45;;;12.10;92.40;;;;;;5093524;28;20031;-86
2021/03/25 09:23:46;;;;;;;78.20;32.75;;;12.10;92.00;;;;;;5094305;28;20434;-85
2021/03/25 09:26:12;;;;;;;70.18;32.35;;;12.10;92.00;;;;;;5095861;28;20146;-86
2021/03/25 09:28:53;;;;;;;68.55;29.75;;;12.10;91.80;;;;;;5093291;28;20048;-85
2021/03/25 09:31:20;;;;;;;68.25;29.55;;;12.10;91.60;;;;;;5092507;28;20389;-83
2021/03/25 09:33:51;;;;;;;78.07;33.05;;;12.10;91.70;;;;;;5093703;28;20036;-83
2021/03/25 09:36:17;;;;;;;67.32;31.60;;;12.00;91.70;;;;;;5093042;28;20028;-85
2021/03/25 09:38:44;;;;;;;73.20;31.80;;;12.10;91.70;;;;;;5092850;28;20020;-87
2021/03/25 09:41:40;;;;;;;74.00;30.52;;;12.20;91.70;;;;;;5096131;28;20027;-83
2021/03/25 09:44:09;;;;;;;72.35;32.20;;;12.20;91.40;;;;;;5093150;28;20477;-83
2021/03/25 09:46:41;;;;;;;81.47;30.63;;;12.20;91.50;;;;;;5092100;28;20119;-81
2021/03/25 09:49:16;;;;;;;70.05;31.20;;;12.30;91.50;;;;;;5092461;28;20056;-84
2021/03/25 09:51:43;;;;;;;70.78;31.10;;;12.40;91.40;;;;;;5091973;28;20040;-82
2021/03/25 09:54:24;;;;;;;78.65;33.90;;;12.40;91.20;;;;;;5091852;28;20078;-83
2021/03/25 09:57:28;;;;;;;77.60;33.28;;;12.50;91.10;;;;;;5092291;28;20091;-83
2021/03/25 09:59:56;;;;;;;62.33;27.98;;;12.60;90.90;;;;;;5091951;28;20060;-82
2021/03/25 10:02:40;;;;;;;68.65;29.33;;;12.70;90.70;;;;;;5093235;28;20107;-84
2021/03/25 10:05:35;;;;;;;59.53;28.35;;;12.80;90.50;;;;;;5091801;28;20489;-81
2021/03/25 10:08:03;;;;;;;62.88;29.13;;;12.90;90.20;;;;;;5089448;28;20040;-81
2021/03/25 10:10:31;;;;;;;;;;;13.00;89.70;;;;;;5092572;28;20040;-82
2021/03/25 10:13:06;;;;;;;71.30;29.75;;;13.10;89.50;;;;;;5092630;28;19918;-82
2021/03/25 10:15:41;;;;;;;73.93;30.75;;;13.20;89.30;;;;;;5092266;28;20077;-83
2021/03/25 10:18:16;;;;;;;62.40;28.33;;;13.30;89.00;;;;;;5090590;28;20087;-82
2021/03/25 10:20:47;;;;;;;61.65;29.52;;;13.40;88.40;;;;;;5090947;28;20054;-86
2021/03/25 10:23:27;;;;;;;71.05;29.58;;;13.50;87.90;;;;;;5093947;28;20016;-83
2021/03/25 10:26:01;;;;;;;71.10;31.95;;;13.60;87.60;;;;;;5092049;28;20024;-82
2021/03/25 10:28:30;;;;;;;89.38;38.33;;;13.50;86.90;;;;;;5090444;28;20488;-80
2021/03/25 10:31:22;;;;;;;74.85;34.97;;;13.60;87.10;;;;;;5092094;28;20040;-81
2021/03/25 10:33:51;;;;;;;82.82;33.28;;;13.60;87.00;;;;;;5092070;28;20384;-80
2021/03/25 10:36:21;;;;;;;79.38;34.25;;;13.50;87.20;;;;;;5092016;28;20067;-82
2021/03/25 10:38:54;;;;;;;75.65;34.58;;;13.50;87.30;;;;;;5092024;28;20043;-82
2021/03/25 10:41:22;;;;;;;72.85;34.55;;;13.60;87.30;;;;;;5093527;28;20024;-86
2021/03/25 10:43:51;;;;;;;;;;;13.60;86.90;;;;;;5092892;28;20055;-83
2021/03/25 10:46:36;;;;;;;80.63;35.45;;;13.70;87.40;;;;;;5091848;28;19912;-82
2021/03/25 10:49:13;;;;;;;83.38;36.45;;;13.80;87.00;;;;;;5090566;28;20052;-83
2021/03/25 10:51:42;;;;;;;86.83;36.70;;;13.80;87.10;;;;;;5092174;28;20024;-82
2021/03/25 10:54:36;;;;;;;82.60;38.53;;;13.90;86.90;;;;;;5090811;28;20357;-85
2021/03/25 10:57:26;;;;;;;78.95;36.88;;;13.80;86.10;;;;;;5091627;28;20107;-81
2021/03/25 11:00:10;;;;;;;84.63;38.50;;;13.90;86.40;;;;;;5080757;28;20028;-81
2021/03/25 11:02:41;;;;;;;82.20;38.88;;;14.00;86.30;;;;;;5091135;28;20024;-72
2021/03/25 11:05:20;;;;;;;107.50;50.42;;;14.10;85.80;;;;;;5091912;28;20028;-82
2021/03/25 11:07:48;;;;;;;87.90;41.17;;;14.20;86.10;;;;;;5090881;28;20092;-80
2021/03/25 11:10:36;;;;;;;84.93;39.45;;;14.20;85.60;;;;;;5091949;28;20054;-84
2021/03/25 11:13:04;;;;;;;;;;;14.20;85.50;;;;;;5071306;28;20609;-81
2021/03/25 11:15:34;;;;;;;91.43;42.17;;;14.20;86.10;;;;;;5069865;28;19908;-83
2021/03/25 11:18:21;;;;;;;84.65;39.63;;;14.30;85.60;;;;;;5071042;28;20048;-81
2021/03/25 11:20:48;;;;;;;91.05;40.97;;;14.20;85.50;;;;;;5070215;28;20028;-83
2021/03/25 11:23:16;;;;;;;87.53;40.05;;;14.30;85.50;;;;;;5073959;28;20261;-79
2021/03/25 11:25:42;;;;;;;95.57;41.25;;;14.40;85.60;;;;;;5070553;28;20075;-81
2021/03/25 11:28:17;;;;;;;85.07;40.67;;;14.50;84.90;;;;;;5070420;28;20478;-83
2021/03/25 11:30:49;;;;;;;87.45;39.22;;;14.70;84.60;;;;;;5069078;28;20167;-81
2021/03/25 11:33:27;;;;;;;92.75;41.88;;;14.80;85.80;;;;;;5069450;28;20062;-83
2021/03/25 11:35:53;;;;;;;;;;;14.80;84.20;;;;;;5071035;28;20074;-88
2021/03/25 11:38:41;;;;;;;89.45;40.13;;;14.80;83.80;;;;;;5074301;28;19932;-87
2021/03/25 11:41:09;;;;;;;88.90;40.53;;;14.80;83.70;;;;;;5071160;28;20466;-81
2021/03/25 11:43:46;;;;;;;90.03;42.78;;;15.00;83.90;;;;;;5068927;28;20060;-81
2021/03/25 11:46:31;;;;;;;88.32;40.80;;;14.90;83.30;;;;;;5069028;28;20481;-82
2021/03/25 11:49:02;;;;;;;86.03;41.15;;;14.80;83.30;;;;;;5074243;28;20470;-89
2021/03/25 11:51:28;;;;;;;89.75;40.85;;;15.00;83.80;;;;;;5073177;28;20028;-87
2021/03/25 11:53:56;;;;;;;92.22;43.22;;;15.00;83.70;;;;;;5071701;28;20363;-86
2021/03/25 11:56:32;;;;;;;90.35;42.83;;;15.00;83.50;;;;;;5073521;28;20020;-86
2021/03/25 11:59:12;;;;;;;91.40;42.42;;;15.00;82.60;;;;;;5071303;28;20111;-83
2021/03/25 12:01:40;;;;;;;95.30;42.67;;;15.00;82.50;;;;;;5070063;28;20048;-84
2021/03/25 12:04:14;;;;;;;94.75;44.22;;;15.10;82.40;;;;;;5070585;28;20043;-86
2021/03/25 12:07:00;;;;;;;87.18;41.45;;;15.10;82.10;;;;;;5070314;28;20060;-86
2021/03/25 12:09:27;;;;;;;90.45;42.40;;;15.30;82.40;;;;;;5070939;28;20527;-84
2021/03/25 12:11:52;;;;;;;91.88;44.05;;;15.30;81.90;;;;;;5069337;28;20078;-85
2021/03/25 12:14:21;;;;;;;91.05;45.20;;;15.30;81.50;;;;;;5072865;28;20096;-87
2021/03/25 12:16:59;;;;;;;88.38;43.58;;;15.20;81.30;;;;;;5072043;28;20044;-87
2021/03/25 12:19:25;;;;;;;97.00;45.08;;;15.20;81.30;;;;;;5072189;28;20021;-85
2021/03/25 12:21:51;;;;;;;94.15;44.50;;;15.10;81.30;;;;;;5069347;28;20036;-83
2021/03/25 12:24:17;;;;;;;85.63;41.58;;;15.20;81.10;;;;;;5070484;28;20036;-86
2021/03/25 12:26:43;;;;;;;86.70;42.30;;;15.10;80.60;;;;;;5069879;28;20028;-83
2021/03/25 12:29:12;;;;;;;98.57;43.55;;;15.20;81.10;;;;;;5071644;28;20020;-84
2021/03/25 12:31:41;;;;;;;94.10;42.08;;;15.30;80.60;;;;;;5070441;28;20040;-84
2021/03/25 12:34:08;;;;;;;93.68;44.47;;;15.30;80.30;;;;;;5070278;28;20043;-85
2021/03/25 12:36:35;;;;;;;99.10;43.70;;;15.30;80.50;;;;;;5069448;28;20097;-85
2021/03/25 12:39:03;;;;;;;91.35;42.33;;;15.20;80.00;;;;;;5071928;28;20031;-86
2021/03/25 12:41:37;;;;;;;95.85;43.17;;;15.10;80.30;;;;;;5071426;28;20358;-86
2021/03/25 12:44:03;;;;;;;87.68;41.05;;;15.10;80.20;;;;;;5070523;28;20034;-88
2021/03/25 12:46:29;;;;;;;85.43;42.30;;;15.10;80.10;;;;;;5072687;28;20033;-87
2021/03/25 12:48:56;;;;;;;87.75;41.80;;;15.20;80.10;;;;;;5071185;28;20045;-85
2021/03/25 12:51:22;;;;;;;86.70;40.53;;;15.30;79.90;;;;;;5070297;28;20040;-82
2021/03/25 12:53:48;;;;;;;88.93;42.35;;;15.40;79.60;;;;;;5070300;28;20038;-85
2021/03/25 12:56:34;;;;;;;87.35;41.20;;;15.50;78.90;;;;;;5071864;28;20025;-86
2021/03/25 12:59:10;;;;;;;83.93;40.95;;;15.60;78.60;;;;;;5070156;28;20056;-87
2021/03/25 13:01:37;;;;;;;80.20;36.75;;;15.60;78.60;;;;;;5069190;28;20135;-82
2021/03/25 13:04:03;;;;;;;79.80;38.40;;;15.60;78.00;;;;;;5069338;28;20040;-83
2021/03/25 13:06:29;;;;;;;89.03;39.22;;;15.60;77.70;;;;;;5069447;28;20128;-81
2021/03/25 13:08:55;;;;;;;90.45;39.63;;;15.60;77.70;;;;;;5069119;28;20187;-81
2021/03/25 13:11:26;;;;;;;83.28;39.58;;;15.70;77.90;;;;;;5071600;28;20029;-81
2021/03/25 13:13:53;;;;;;;86.63;40.85;;;15.70;78.00;;;;;;5070130;28;20053;-80
2021/03/25 13:16:19;;;;;;;84.10;38.95;;;15.80;77.60;;;;;;5069874;28;20051;-82